Aérodrome :
LOGIN :

S'inscrire | Disclaimer

   EN    FR    IT 

 










Légende :    VFR   VFR Marginal   IFR   IFR Intensif   IFR Très Intensif
Visi : 
Plafond : 
>= 8 km
>= 3000ft
5 à 8 km
1000 à 3000 ft
1500m à 5 km
500 à 1000 ft
800 à 1500m
200 à 500 ft
< 800m
< 200 ft
Symboles :   Orages  Brouillard  Fortes neiges  Fortes précipitations  Vent > 20 kt
SIGMETs :   Divers  Orages  Givrage  Turbulence  Onde Orograph.  Cendres Volcan.







- Altitude de l'aérodrome : 408 ft
- Code IATA : FKB


EDSB - Karlsruhe Baden Baden

DERNIER METAR :
  • 161450Z 23002KT CAVOK 14/02 Q1027

METARs EXPIRÉS :
  • 161420Z 22004KT 190V260 CAVOK 14/02 Q1027
  • 161350Z 20003KT 130V260 CAVOK 13/02 Q1028
  • 161320Z VRB02KT CAVOK 13/03 Q1028
  • 161250Z 28003KT 220V340 CAVOK 11/02 Q1028
  • 161220Z 26004KT 230V330 CAVOK 11/02 Q1028

TAF TAF EDSB
Valide du 16 à 12h jusqu'au 17 à 12h UTC


161100Z 1612/1712 23004KT CAVOK
TEMPO 1702/1708 4000 BR
PROB30
TEMPO 1705/1708 1500 BCFG
Pas de NOTAMs connus pour ce terrain.



MET'MAP, la Météo Aéronautique d'un coup d'oeil ! - Copyright ORBIFLY Décembre 2007 - Disclaimer

ORBIFLY MET'MAP TEAM :

Programmation & Développement : Alexandra Zaïnal
Conception & Développement : Baudouin d'Aumeries
Co-Programmation & Développement : Marc-Olivier Méhu
Soutien technique & logistique : Manuel Goepfert

Contact : metmap@orbifly.com




SOURCES & CREDITS :

   NOAA